createdAt,value
2018-08-18T00:00:26.964Z,26.62
2018-08-18T00:02:57.555Z,26.63
2018-08-18T00:05:28.954Z,26.63
2018-08-18T00:07:59.930Z,26.61
2018-08-18T00:10:31.378Z,26.62
2018-08-18T00:13:02.682Z,26.61
2018-08-18T00:15:34.214Z,26.63
2018-08-18T00:18:05.694Z,26.63
2018-08-18T00:20:37.216Z,26.63
2018-08-18T00:23:08.603Z,26.62
2018-08-18T00:25:39.885Z,26.61
2018-08-18T00:28:23.341Z,26.60
2018-08-18T00:30:55.311Z,26.60
2018-08-18T00:33:27.253Z,26.59
2018-08-18T00:35:58.790Z,26.60
2018-08-18T00:38:33.384Z,26.60
2018-08-18T00:41:04.839Z,26.59
2018-08-18T00:43:36.624Z,26.59
2018-08-18T00:46:07.892Z,26.58
2018-08-18T00:48:39.401Z,26.58
2018-08-18T00:51:10.793Z,26.56
2018-08-18T00:53:42.021Z,26.57
2018-08-18T00:56:13.645Z,26.56
2018-08-18T00:58:55.254Z,26.56
2018-08-18T01:01:26.652Z,26.56
2018-08-18T01:03:59.203Z,26.55
2018-08-18T01:06:38.261Z,26.55
2018-08-18T01:09:13.903Z,26.54
2018-08-18T01:11:44.643Z,26.53
2018-08-18T01:14:22.012Z,26.54
2018-08-18T01:16:53.811Z,26.53
2018-08-18T01:19:25.308Z,26.53
2018-08-18T01:21:59.440Z,26.53
2018-08-18T01:24:30.765Z,26.52
2018-08-18T01:27:04.723Z,26.53
2018-08-18T01:29:36.195Z,26.52
2018-08-18T01:32:07.688Z,26.51
2018-08-18T01:34:39.210Z,26.51
2018-08-18T01:37:15.622Z,26.52
2018-08-18T01:39:46.733Z,26.50
2018-08-18T01:42:18.276Z,26.49
2018-08-18T01:44:49.854Z,26.47
2018-08-18T01:47:21.433Z,26.46
2018-08-18T01:49:52.828Z,26.47
2018-08-18T01:52:25.680Z,26.46
2018-08-18T01:54:57.211Z,26.48
2018-08-18T01:57:28.665Z,26.45
2018-08-18T02:00:00.385Z,26.47
2018-08-18T02:02:31.986Z,26.45
2018-08-18T02:05:17.381Z,26.46
2018-08-18T02:07:50.372Z,26.43
2018-08-18T02:10:21.742Z,26.41
2018-08-18T02:13:05.865Z,26.41
2018-08-18T02:15:37.382Z,26.38
2018-08-18T02:18:09.200Z,26.37
2018-08-18T02:20:40.685Z,26.38
2018-08-18T02:23:12.205Z,26.38
2018-08-18T02:25:43.815Z,26.38
2018-08-18T02:28:29.681Z,26.38
2018-08-18T02:31:01.208Z,26.36
2018-08-18T02:33:33.421Z,26.36
2018-08-18T02:36:04.870Z,26.38
2018-08-18T02:38:36.760Z,26.39
2018-08-18T02:41:07.696Z,26.38
2018-08-18T02:43:39.336Z,26.39
2018-08-18T02:46:39.909Z,26.36
2018-08-18T02:49:11.384Z,26.33
2018-08-18T02:51:42.778Z,26.31
2018-08-18T02:54:14.206Z,26.33
2018-08-18T02:56:45.638Z,26.34
2018-08-18T02:59:17.405Z,26.34
2018-08-18T03:01:48.885Z,26.34
2018-08-18T03:04:20.442Z,26.34
2018-08-18T03:06:51.736Z,26.32
2018-08-18T03:09:23.196Z,26.26
2018-08-18T03:11:54.673Z,26.31
2018-08-18T03:14:26.221Z,26.32
2018-08-18T03:16:57.753Z,26.30
2018-08-18T03:19:29.356Z,26.30
2018-08-18T03:22:00.786Z,26.30
2018-08-18T03:24:32.220Z,26.29
2018-08-18T03:27:03.807Z,26.29
2018-08-18T03:29:41.413Z,26.29
2018-08-18T03:32:13.405Z,26.28
2018-08-18T03:37:01.709Z,26.28
2018-08-18T03:39:33.791Z,26.27
2018-08-18T03:42:05.687Z,26.27
2018-08-18T03:44:57.976Z,26.26
2018-08-18T03:47:28.471Z,26.24
2018-08-18T03:49:59.638Z,26.23
2018-08-18T03:52:30.791Z,26.24
2018-08-18T03:55:02.295Z,26.25
2018-08-18T03:57:48.637Z,26.24
2018-08-18T04:00:20.203Z,26.23
2018-08-18T04:02:51.705Z,26.23
2018-08-18T04:05:23.310Z,26.23
2018-08-18T04:07:54.782Z,26.24
2018-08-18T04:10:26.404Z,26.24
2018-08-18T04:12:58.997Z,26.23
2018-08-18T04:15:30.208Z,26.22
2018-08-18T04:18:05.308Z,26.22
2018-08-18T04:20:36.595Z,26.22
2018-08-18T04:23:07.726Z,26.20
2018-08-18T04:25:38.850Z,26.21
2018-08-18T04:28:09.832Z,26.20
2018-08-18T04:30:40.861Z,26.20
2018-08-18T04:33:12.634Z,26.18
2018-08-18T04:35:48.323Z,26.18
2018-08-18T04:38:19.627Z,26.18
2018-08-18T04:40:50.704Z,26.22
2018-08-18T04:43:21.796Z,26.23
2018-08-18T04:45:52.828Z,26.23
2018-08-18T04:48:31.964Z,26.25
2018-08-18T04:51:02.355Z,26.25
2018-08-18T04:53:33.687Z,26.24
2018-08-18T04:56:04.817Z,26.26
2018-08-18T04:58:36.196Z,26.26
2018-08-18T05:01:07.705Z,26.29
2018-08-18T05:03:58.649Z,26.32
2018-08-18T05:06:31.609Z,26.32
2018-08-18T05:09:04.732Z,26.34
2018-08-18T05:11:36.287Z,26.35
2018-08-18T05:14:07.958Z,26.35
2018-08-18T05:16:38.580Z,26.35
2018-08-18T05:19:10.066Z,26.36
2018-08-18T05:21:42.395Z,26.35
2018-08-18T05:24:28.207Z,26.36
2018-08-18T05:27:01.216Z,26.34
2018-08-18T05:29:32.783Z,26.35
2018-08-18T05:32:04.438Z,26.37
2018-08-18T05:34:35.738Z,26.37
2018-08-18T05:37:07.382Z,26.37
2018-08-18T05:39:38.901Z,26.36
2018-08-18T05:42:09.571Z,26.36
2018-08-18T05:44:41.053Z,26.37
2018-08-18T05:47:11.801Z,26.37
2018-08-18T05:49:43.424Z,26.38
2018-08-18T05:52:14.972Z,26.38
2018-08-18T05:54:46.613Z,26.40
2018-08-18T05:57:18.227Z,26.37
2018-08-18T05:59:49.791Z,26.37
2018-08-18T06:02:21.384Z,26.34
2018-08-18T06:04:52.786Z,26.38
2018-08-18T06:07:24.437Z,26.39
2018-08-18T06:09:55.980Z,26.41
2018-08-18T06:12:27.645Z,26.40
2018-08-18T06:14:59.198Z,26.42
2018-08-18T06:17:32.760Z,26.43
2018-08-18T06:20:04.402Z,26.39
2018-08-18T06:22:36.308Z,26.43
2018-08-18T06:25:08.215Z,26.47
2018-08-18T06:27:39.779Z,26.49
2018-08-18T06:30:11.416Z,26.50
2018-08-18T06:32:42.760Z,26.51
2018-08-18T06:35:14.311Z,26.52
2018-08-18T06:37:50.413Z,26.53
2018-08-18T06:40:21.995Z,26.54
2018-08-18T06:42:53.632Z,26.53
2018-08-18T06:45:25.209Z,26.49
2018-08-18T06:48:38.200Z,26.54
2018-08-18T06:51:10.259Z,26.50
2018-08-18T06:53:43.829Z,26.49
2018-08-18T06:56:15.414Z,26.52
2018-08-18T06:58:46.777Z,26.54
2018-08-18T07:01:18.328Z,26.59
2018-08-18T07:03:49.783Z,26.58
2018-08-18T07:06:21.540Z,26.61
2018-08-18T07:08:54.310Z,26.61
2018-08-18T07:11:25.809Z,26.64
2018-08-18T07:13:57.439Z,26.65
2018-08-18T07:16:28.872Z,26.64
2018-08-18T07:19:00.428Z,26.65
2018-08-18T07:21:31.776Z,26.66
2018-08-18T07:24:03.276Z,26.69
2018-08-18T07:26:34.838Z,26.71
2018-08-18T07:29:06.509Z,26.72
2018-08-18T07:31:37.732Z,26.75
2018-08-18T07:34:09.444Z,26.75
2018-08-18T07:36:40.905Z,26.73
2018-08-18T07:39:11.630Z,26.76
2018-08-18T07:41:43.225Z,26.74
2018-08-18T07:44:14.599Z,26.76
2018-08-18T07:46:45.728Z,26.74
2018-08-18T07:49:16.834Z,26.78
2018-08-18T07:51:47.828Z,26.80
2018-08-18T07:54:18.623Z,26.80
2018-08-18T07:56:49.500Z,26.80
2018-08-18T07:59:20.607Z,26.84
2018-08-18T08:01:51.732Z,26.84
2018-08-18T08:04:22.839Z,26.85
2018-08-18T08:06:54.836Z,26.90
2018-08-18T08:09:25.641Z,26.90
2018-08-18T08:11:56.704Z,26.86
2018-08-18T08:14:28.444Z,26.87
2018-08-18T08:16:59.825Z,26.81
2018-08-18T08:19:31.156Z,26.96
2018-08-18T08:22:02.867Z,27.01
2018-08-18T08:24:34.582Z,27.01
2018-08-18T08:27:06.184Z,27.00
2018-08-18T08:29:39.657Z,26.96
2018-08-18T08:32:11.732Z,26.92
2018-08-18T08:34:46.644Z,26.87
2018-08-18T08:37:18.454Z,26.93
2018-08-18T08:39:49.809Z,26.91
2018-08-18T08:42:21.385Z,26.92
2018-08-18T08:44:52.912Z,26.96
2018-08-18T08:47:23.440Z,26.96
2018-08-18T08:49:55.203Z,26.95
2018-08-18T08:52:26.668Z,26.95
2018-08-18T08:54:58.187Z,26.96
2018-08-18T08:57:29.762Z,26.94
2018-08-18T09:00:01.418Z,26.87
2018-08-18T09:02:32.790Z,26.92
2018-08-18T09:05:04.359Z,26.91
2018-08-18T09:07:36.703Z,26.96
2018-08-18T09:10:10.381Z,27.05
2018-08-18T09:12:41.789Z,27.07
2018-08-18T09:15:15.323Z,27.04
2018-08-18T09:17:46.853Z,26.98
2018-08-18T09:20:19.715Z,27.02
2018-08-18T09:22:57.049Z,27.03
2018-08-18T09:25:31.032Z,27.04
2018-08-18T09:28:03.724Z,27.01
2018-08-18T09:30:35.421Z,27.04
2018-08-18T09:33:07.868Z,27.01
2018-08-18T09:36:00.703Z,27.04
2018-08-18T09:38:32.309Z,27.01
2018-08-18T09:41:03.829Z,26.98
2018-08-18T09:43:35.458Z,27.00
2018-08-18T09:46:07.201Z,27.01
2018-08-18T09:48:38.774Z,27.03
2018-08-18T09:51:09.820Z,27.02
2018-08-18T09:53:41.218Z,27.06
2018-08-18T09:56:12.808Z,27.09
2018-08-18T09:58:44.352Z,27.01
2018-08-18T10:01:15.833Z,27.10
2018-08-18T10:03:47.305Z,27.10
2018-08-18T10:06:18.910Z,27.10
2018-08-18T10:08:49.540Z,27.04
2018-08-18T10:11:20.912Z,27.08
2018-08-18T10:13:51.598Z,27.15
2018-08-18T10:16:23.196Z,27.15
2018-08-18T10:18:54.706Z,27.10
2018-08-18T10:21:26.270Z,27.03
2018-08-18T10:23:57.860Z,27.02
2018-08-18T10:26:29.646Z,26.97
2018-08-18T10:29:18.726Z,26.97
2018-08-18T10:31:53.310Z,27.09
2018-08-18T10:34:26.205Z,27.08
2018-08-18T10:37:05.218Z,27.02
2018-08-18T10:39:38.321Z,26.98
2018-08-18T10:42:15.279Z,26.93
2018-08-18T10:44:53.375Z,27.02
2018-08-18T10:47:25.669Z,27.07
2018-08-18T10:50:21.194Z,27.08
2018-08-18T10:52:59.853Z,26.99
2018-08-18T10:55:32.749Z,26.95
2018-08-18T10:58:07.335Z,26.92
2018-08-18T11:00:38.563Z,26.94
2018-08-18T11:03:10.220Z,27.05
2018-08-18T11:05:41.722Z,27.01
2018-08-18T11:08:13.355Z,26.99
2018-08-18T11:10:45.211Z,26.96
2018-08-18T11:13:16.696Z,26.97
2018-08-18T11:15:48.197Z,27.05
2018-08-18T11:18:19.742Z,27.06
2018-08-18T11:20:51.327Z,27.02
2018-08-18T11:23:22.841Z,26.97
2018-08-18T11:25:55.375Z,26.93
2018-08-18T11:28:27.545Z,26.91
2018-08-18T11:30:58.965Z,26.96
2018-08-18T11:33:41.699Z,26.95
2018-08-18T11:36:13.742Z,26.94
2018-08-18T11:38:45.383Z,26.86
2018-08-18T11:41:16.786Z,26.86
2018-08-18T11:43:51.381Z,26.90
2018-08-18T11:46:22.905Z,26.89
2018-08-18T11:48:53.710Z,26.91
2018-08-18T11:51:30.203Z,26.89
2018-08-18T11:54:03.429Z,26.87
2018-08-18T11:56:40.808Z,26.88
2018-08-18T11:59:17.632Z,26.89
2018-08-18T12:01:51.904Z,26.83
2018-08-18T12:04:23.651Z,26.84
2018-08-18T12:06:58.750Z,26.89
2018-08-18T12:09:30.596Z,26.91
2018-08-18T12:12:02.198Z,26.93
2018-08-18T12:14:34.645Z,26.93
2018-08-18T12:17:07.566Z,26.93
2018-08-18T12:19:39.234Z,26.95
2018-08-18T12:22:10.662Z,26.95
2018-08-18T12:24:47.199Z,26.96
2018-08-18T12:27:18.726Z,26.97
2018-08-18T12:29:50.354Z,27.00
2018-08-18T12:32:25.724Z,27.00
2018-08-18T12:34:59.208Z,26.92
2018-08-18T12:37:30.808Z,26.96
2018-08-18T12:40:02.406Z,26.95
2018-08-18T12:42:34.220Z,26.96
2018-08-18T12:45:05.916Z,26.95
2018-08-18T12:50:24.630Z,26.94
2018-08-18T12:52:55.788Z,26.94
2018-08-18T12:55:26.806Z,26.90
2018-08-18T12:57:57.848Z,26.89
2018-08-18T13:00:28.787Z,26.92
2018-08-18T13:03:00.346Z,26.93
2018-08-18T13:05:31.758Z,26.93
2018-08-18T13:08:03.303Z,26.95
2018-08-18T13:10:34.713Z,26.88
2018-08-18T13:13:06.069Z,26.89
2018-08-18T13:15:37.686Z,26.91
2018-08-18T13:18:09.204Z,26.93
2018-08-18T13:20:40.767Z,26.95
2018-08-18T13:23:11.865Z,26.95
2018-08-18T13:25:43.568Z,26.94
2018-08-18T13:28:14.868Z,26.98
2018-08-18T13:30:46.549Z,27.04
2018-08-18T13:33:17.986Z,27.08
2018-08-18T13:35:49.552Z,27.13
2018-08-18T13:38:31.663Z,27.12
2018-08-18T13:41:03.203Z,27.11
2018-08-18T13:43:49.421Z,27.11
2018-08-18T13:46:31.499Z,27.17
2018-08-18T13:49:03.812Z,27.17
2018-08-18T13:51:35.753Z,27.14
2018-08-18T13:54:07.293Z,27.10
2018-08-18T13:56:38.541Z,27.13
2018-08-18T13:59:09.895Z,27.15
2018-08-18T14:01:42.839Z,27.14
2018-08-18T14:04:20.904Z,27.15
2018-08-18T14:06:56.209Z,27.16
2018-08-18T14:09:27.397Z,27.14
2018-08-18T14:12:02.834Z,27.21
2018-08-18T14:14:34.472Z,27.21
2018-08-18T14:17:05.663Z,27.21
2018-08-18T14:19:36.723Z,27.26
2018-08-18T14:22:09.675Z,27.26
2018-08-18T14:24:41.883Z,27.28
2018-08-18T14:27:18.206Z,27.25
2018-08-18T14:29:49.358Z,27.22
2018-08-18T14:32:29.600Z,27.24
2018-08-18T14:35:07.814Z,27.28
2018-08-18T14:37:42.392Z,27.22
2018-08-18T14:40:19.632Z,27.25
2018-08-18T14:42:51.610Z,27.31
2018-08-18T14:45:23.992Z,27.31
2018-08-18T14:47:55.524Z,27.27
2018-08-18T14:50:30.724Z,27.26
2018-08-18T14:53:05.729Z,27.23
2018-08-18T14:55:37.242Z,27.17
2018-08-18T14:58:08.736Z,27.15
2018-08-18T15:00:40.274Z,27.18
2018-08-18T15:03:11.842Z,27.20
2018-08-18T15:05:43.434Z,27.20
2018-08-18T15:08:14.824Z,27.28
2018-08-18T15:10:47.204Z,27.18
2018-08-18T15:13:18.967Z,27.18
2018-08-18T15:15:49.569Z,27.14
2018-08-18T15:18:20.852Z,27.13
2018-08-18T15:20:52.397Z,27.15
2018-08-18T15:23:23.765Z,27.17
2018-08-18T15:25:55.405Z,27.17
2018-08-18T15:28:28.749Z,27.22
2018-08-18T15:31:00.423Z,27.30
2018-08-18T15:33:31.878Z,27.30
2018-08-18T15:36:03.374Z,27.28
2018-08-18T15:38:46.729Z,27.30
2018-08-18T15:41:18.237Z,27.23
2018-08-18T15:43:49.786Z,27.16
2018-08-18T15:46:22.217Z,27.22
2018-08-18T15:48:53.789Z,27.23
2018-08-18T15:51:25.201Z,27.24
2018-08-18T15:53:57.716Z,27.23
2018-08-18T15:56:30.652Z,27.23
2018-08-18T15:59:02.649Z,27.25
2018-08-18T16:01:35.312Z,27.24
2018-08-18T16:04:06.805Z,27.34
2018-08-18T16:06:38.417Z,27.36
2018-08-18T16:09:10.923Z,27.34
2018-08-18T16:11:41.568Z,27.31
2018-08-18T16:14:13.216Z,27.18
2018-08-18T16:17:00.222Z,27.23
2018-08-18T16:19:36.337Z,27.31
2018-08-18T16:22:08.996Z,27.24
2018-08-18T16:24:46.889Z,27.26
2018-08-18T16:27:18.312Z,27.28
2018-08-18T16:29:49.719Z,27.28
2018-08-18T16:32:27.863Z,27.26
2018-08-18T16:35:04.497Z,27.24
2018-08-18T16:37:38.466Z,27.24
2018-08-18T16:40:09.765Z,27.25
2018-08-18T16:42:40.878Z,27.30
2018-08-18T16:45:11.768Z,27.28
2018-08-18T16:47:52.237Z,27.28
2018-08-18T16:50:23.734Z,27.22
2018-08-18T16:52:55.322Z,27.25
2018-08-18T16:55:26.762Z,27.29
2018-08-18T16:57:58.311Z,27.30
2018-08-18T17:00:29.779Z,27.35
2018-08-18T17:03:01.032Z,27.31
2018-08-18T17:05:32.520Z,27.35
2018-08-18T17:08:03.833Z,27.34
2018-08-18T17:10:35.346Z,27.34
2018-08-18T17:13:06.845Z,27.42
2018-08-18T17:15:38.391Z,27.43
2018-08-18T17:18:09.824Z,27.37
2018-08-18T17:20:44.814Z,27.39
2018-08-18T17:23:16.300Z,27.41
2018-08-18T17:25:47.775Z,27.42
2018-08-18T17:28:19.201Z,27.41
2018-08-18T17:30:53.725Z,27.44
2018-08-18T17:33:26.262Z,27.43
2018-08-18T17:35:57.512Z,27.41
2018-08-18T17:38:28.850Z,27.39
2018-08-18T17:41:00.226Z,27.42
2018-08-18T17:43:31.725Z,27.43
2018-08-18T17:46:07.418Z,27.39
2018-08-18T17:48:44.214Z,27.41
2018-08-18T17:51:15.655Z,27.41
2018-08-18T17:53:52.312Z,27.39
2018-08-18T17:56:23.733Z,27.39
2018-08-18T17:58:55.397Z,27.39
2018-08-18T18:01:26.783Z,27.40
2018-08-18T18:03:57.869Z,27.39
2018-08-18T18:06:28.656Z,27.39
2018-08-18T18:08:59.995Z,27.36
2018-08-18T18:11:31.679Z,27.33
2018-08-18T18:14:03.229Z,27.38
2018-08-18T18:16:34.748Z,27.32
2018-08-18T18:19:05.785Z,27.33
2018-08-18T18:21:37.402Z,27.30
2018-08-18T18:24:08.712Z,27.34
2018-08-18T18:26:41.758Z,27.34
2018-08-18T18:29:17.009Z,27.36
2018-08-18T18:31:48.507Z,27.34
2018-08-18T18:34:19.877Z,27.32
2018-08-18T18:36:51.423Z,27.33
2018-08-18T18:39:22.837Z,27.34
2018-08-18T18:41:54.362Z,27.30
2018-08-18T18:44:25.722Z,27.30
2018-08-18T18:46:57.207Z,27.31
2018-08-18T18:49:33.610Z,27.27
2018-08-18T18:52:05.224Z,27.26
2018-08-18T18:54:36.716Z,27.27
2018-08-18T18:57:09.640Z,27.23
2018-08-18T18:59:46.186Z,27.28
2018-08-18T19:02:17.694Z,27.27
2018-08-18T19:04:49.219Z,27.28
2018-08-18T19:07:20.671Z,27.28
2018-08-18T19:09:55.856Z,27.28
2018-08-18T19:12:27.423Z,27.24
2018-08-18T19:14:58.902Z,27.25
2018-08-18T19:17:30.712Z,27.24
2018-08-18T19:20:26.521Z,27.25
2018-08-18T19:23:07.194Z,27.21
2018-08-18T19:25:39.749Z,27.21
2018-08-18T19:28:18.670Z,27.19
2018-08-18T19:30:50.216Z,27.20
2018-08-18T19:33:21.807Z,27.17
2018-08-18T19:35:53.772Z,27.15
2018-08-18T19:38:25.230Z,27.15
2018-08-18T19:40:57.746Z,27.14
2018-08-18T19:43:29.657Z,27.09
2018-08-18T19:46:01.281Z,27.10
2018-08-18T19:48:32.982Z,27.12
2018-08-18T19:51:04.854Z,27.13
2018-08-18T19:53:36.713Z,27.09
2018-08-18T19:56:11.563Z,27.10
2018-08-18T19:58:42.637Z,27.12
2018-08-18T20:01:13.703Z,27.10
2018-08-18T20:03:44.717Z,27.09
2018-08-18T20:06:21.887Z,27.08
2018-08-18T20:08:52.819Z,27.07
2018-08-18T20:11:23.881Z,27.05
2018-08-18T20:13:54.815Z,27.06
2018-08-18T20:16:26.571Z,27.06
2018-08-18T20:18:57.663Z,27.06
2018-08-18T20:21:28.789Z,27.03
2018-08-18T20:23:59.617Z,27.04
2018-08-18T20:26:30.719Z,27.00
2018-08-18T20:29:01.728Z,26.99
2018-08-18T20:31:32.828Z,26.98
2018-08-18T20:34:03.811Z,26.98
2018-08-18T20:36:34.672Z,26.95
2018-08-18T20:39:08.423Z,26.95
2018-08-18T20:41:39.692Z,26.97
2018-08-18T20:44:10.709Z,26.93
2018-08-18T20:46:41.703Z,26.95
2018-08-18T20:49:12.689Z,26.91
2018-08-18T20:51:44.198Z,26.91
2018-08-18T20:54:15.692Z,26.90
2018-08-18T20:56:47.199Z,26.91
2018-08-18T20:59:18.727Z,26.88
2018-08-18T21:01:50.264Z,26.87
2018-08-18T21:04:21.699Z,26.84
2018-08-18T21:06:53.205Z,26.86
2018-08-18T21:09:32.334Z,26.87
2018-08-18T21:12:03.768Z,26.86
2018-08-18T21:14:35.409Z,26.87
2018-08-18T21:17:07.210Z,26.84
2018-08-18T21:19:38.987Z,26.83
2018-08-18T21:22:14.738Z,26.82
2018-08-18T21:24:46.191Z,26.82
2018-08-18T21:27:18.372Z,26.81
2018-08-18T21:29:49.888Z,26.83
2018-08-18T21:32:22.624Z,26.82
2018-08-18T21:34:53.984Z,26.82
2018-08-18T21:37:24.757Z,26.81
2018-08-18T21:39:55.800Z,26.79
2018-08-18T21:42:27.199Z,26.79
2018-08-18T21:44:58.708Z,26.79
2018-08-18T21:47:29.976Z,26.80
2018-08-18T21:50:01.567Z,26.78
2018-08-18T21:52:32.848Z,26.76
2018-08-18T21:55:04.301Z,26.78
2018-08-18T21:57:57.209Z,26.75
2018-08-18T22:00:34.460Z,26.75
2018-08-18T22:03:05.786Z,26.75
2018-08-18T22:05:37.314Z,26.72
2018-08-18T22:08:10.610Z,26.71
2018-08-18T22:10:45.821Z,26.73
2018-08-18T22:13:17.378Z,26.70
2018-08-18T22:15:48.849Z,26.71
2018-08-18T22:18:20.309Z,26.73
2018-08-18T22:20:51.793Z,26.71
2018-08-18T22:23:23.369Z,26.69
2018-08-18T22:25:54.541Z,26.69
2018-08-18T22:28:25.989Z,26.69
2018-08-18T22:30:57.788Z,26.67
2018-08-18T22:33:32.673Z,26.66
2018-08-18T22:36:03.607Z,26.67
2018-08-18T22:38:35.214Z,26.65
2018-08-18T22:41:08.237Z,26.63
2018-08-18T22:43:39.747Z,26.65
2018-08-18T22:46:11.218Z,26.63
2018-08-18T22:48:42.741Z,26.62
2018-08-18T22:51:14.313Z,26.58
2018-08-18T22:53:49.659Z,26.62
2018-08-18T22:56:21.007Z,26.61
2018-08-18T22:59:05.202Z,26.59
2018-08-18T23:01:37.716Z,26.58
2018-08-18T23:04:45.557Z,26.52
2018-08-18T23:07:17.207Z,26.52
2018-08-18T23:09:48.695Z,26.53
2018-08-18T23:12:20.389Z,26.54
2018-08-18T23:14:51.956Z,26.53
2018-08-18T23:17:22.584Z,26.56
2018-08-18T23:19:53.865Z,26.55
2018-08-18T23:22:52.870Z,26.53
2018-08-18T23:25:25.697Z,26.48
2018-08-18T23:27:57.408Z,26.51
2018-08-18T23:30:34.796Z,26.51
2018-08-18T23:33:08.812Z,26.52
2018-08-18T23:35:40.308Z,26.50
2018-08-18T23:38:11.716Z,26.50
2018-08-18T23:40:43.202Z,26.52
2018-08-18T23:43:14.697Z,26.51
2018-08-18T23:45:50.604Z,26.49
2018-08-18T23:48:22.066Z,26.49
2018-08-18T23:50:53.593Z,26.47
2018-08-18T23:53:25.225Z,26.45
2018-08-18T23:56:00.201Z,26.47
2018-08-18T23:58:32.063Z,26.49
